地図

経路データ

SID SEASON NUMBER BASIN SUBBASIN NAME ISO_TIME NATURE LAT LON WMO_WIND WMO_PRES WMO_AGENCY TRACK_TYPE DIST2LAND LANDFALL IFLAG USA_AGENCY USA_ATCF_ID USA_LAT USA_LON USA_RECORD USA_STATUS USA_WIND USA_PRES USA_SSHS USA_R34_NE USA_R34_SE USA_R34_SW USA_R34_NW USA_R50_NE USA_R50_SE USA_R50_SW USA_R50_NW USA_R64_NE USA_R64_SE USA_R64_SW USA_R64_NW USA_POCI USA_ROCI USA_RMW USA_EYE TOKYO_LAT TOKYO_LON TOKYO_GRADE TOKYO_WIND TOKYO_PRES TOKYO_R50_DIR TOKYO_R50_LONG TOKYO_R50_SHORT TOKYO_R30_DIR TOKYO_R30_LONG TOKYO_R30_SHORT TOKYO_LAND CMA_LAT CMA_LON CMA_CAT CMA_WIND CMA_PRES HKO_LAT HKO_LON HKO_CAT HKO_WIND HKO_PRES NEWDELHI_LAT NEWDELHI_LON NEWDELHI_GRADE NEWDELHI_WIND NEWDELHI_PRES NEWDELHI_CI NEWDELHI_DP NEWDELHI_POCI REUNION_LAT REUNION_LON REUNION_TYPE REUNION_WIND REUNION_PRES REUNION_TNUM REUNION_CI REUNION_RMW REUNION_R34_NE REUNION_R34_SE REUNION_R34_SW REUNION_R34_NW REUNION_R50_NE REUNION_R50_SE REUNION_R50_SW REUNION_R50_NW REUNION_R64_NE REUNION_R64_SE REUNION_R64_SW REUNION_R64_NW BOM_LAT BOM_LON BOM_TYPE BOM_WIND BOM_PRES BOM_TNUM BOM_CI BOM_RMW BOM_R34_NE BOM_R34_SE BOM_R34_SW BOM_R34_NW BOM_R50_NE BOM_R50_SE BOM_R50_SW BOM_R50_NW BOM_R64_NE BOM_R64_SE BOM_R64_SW BOM_R64_NW BOM_ROCI BOM_POCI BOM_EYE BOM_POS_METHOD BOM_PRES_METHOD NADI_LAT NADI_LON NADI_CAT NADI_WIND NADI_PRES WELLINGTON_LAT WELLINGTON_LON WELLINGTON_WIND WELLINGTON_PRES DS824_LAT DS824_LON DS824_STAGE DS824_WIND DS824_PRES TD9636_LAT TD9636_LON TD9636_STAGE TD9636_WIND TD9636_PRES TD9635_LAT TD9635_LON TD9635_WIND TD9635_PRES TD9635_ROCI NEUMANN_LAT NEUMANN_LON NEUMANN_CLASS NEUMANN_WIND NEUMANN_PRES MLC_LAT MLC_LON MLC_CLASS MLC_WIND MLC_PRES USA_GUST BOM_GUST BOM_GUST_PER REUNION_GUST REUNION_GUST_PER USA_SEAHGT USA_SEARAD_NE USA_SEARAD_SE USA_SEARAD_SW USA_SEARAD_NW STORM_SPEED STORM_DIR
1974315N09135 1974 129 WP MM HESTER 1974-11-10 12:00:00 TS 9.00000 135.000 main 936 808 __O___________ -1 9.00000 135.000 0 19 1007 25 276
1974315N09135 1974 129 WP MM HESTER 1974-11-10 15:00:00 TS 9.13504 133.765 main 808 673 __P___________ -1 9.13504 133.765 0 19 1007 26 277
1974315N09135 1974 129 WP MM HESTER 1974-11-10 18:00:00 TS 9.30000 132.400 main 663 522 __O___________ -1 9.30000 132.400 0 19 1007 29 277
1974315N09135 1974 129 WP MM HESTER 1974-11-10 21:00:00 TS 9.50836 130.880 main 511 386 __P___________ -1 9.50836 130.880 0 19 1007 28 278
1974315N09135 1974 129 WP MM HESTER 1974-11-11 00:00:00 TS 9.70000 129.600 main 376 314 __O___________ -1 9.70000 129.600 0 19 1007 19 279
1974315N09135 1974 129 WP MM HESTER 1974-11-11 03:00:00 TS 9.80650 128.950 main 303 274 __P___________ -1 9.80650 128.950 0 19 1006 10 281
1974315N09135 1974 129 WP MM HESTER 1974-11-11 06:00:00 TS 9.90000 128.600 main 274 237 __O___________ -1 9.90000 128.600 0 19 1005 8 288
1974315N09135 1974 129 WP MM HESTER 1974-11-11 09:00:00 TS 10.0424 128.192 main 237 208 __P___________ -1 10.0424 128.192 0 19 1005 8 291
1974315N09135 1974 129 WP MM HESTER 1974-11-11 12:00:00 TS 10.2000 127.800 main 208 177 __O___________ -1 10.2000 127.800 0 19 1005 9 291
1974315N09135 1974 129 WP MM HESTER 1974-11-11 15:00:00 TS 10.3500 127.357 main 177 132 __P___________ -1 10.3500 127.357 0 19 1005 9 289
1974315N09135 1974 129 WP MM HESTER 1974-11-11 18:00:00 TS 10.5000 126.900 main 132 88 __O___________ -1 10.5000 126.900 0 19 1005 9 289
1974315N09135 1974 129 WP MM HESTER 1974-11-11 21:00:00 TS 10.6423 126.472 main 88 31 __P___________ -1 10.6423 126.472 0 19 1005 9 289
1974315N09135 1974 129 WP MM HESTER 1974-11-12 00:00:00 TS 10.8000 126.000 main 31 11 __O___________ -1 10.8000 126.000 0 19 1005 11 287
1974315N09135 1974 129 WP MM HESTER 1974-11-12 03:00:00 TS 10.9701 125.400 main 11 0 __P___________ -1 10.9701 125.400 0 19 1004 12 289
1974315N09135 1974 129 WP MM HESTER 1974-11-12 06:00:00 TS 11.2000 124.800 main 0 0 __O___________ -1 11.2000 124.800 0 19 1004 12 300
1974315N09135 1974 129 WP MM HESTER 1974-11-12 09:00:00 TS 11.5648 124.335 main 15 0 __P___________ -1 11.5648 124.335 0 19 1004 11 308
1974315N09135 1974 129 WP MM HESTER 1974-11-12 12:00:00 TS 11.9000 123.900 main 0 0 __O___________ -1 11.9000 123.900 0 19 1004 10 297
1974315N09135 1974 129 WP MM HESTER 1974-11-12 15:00:00 TS 12.0299 123.407 main 15 0 __P___________ -1 12.0299 123.407 0 19 1005 10 282
1974315N09135 1974 129 WP MM HESTER 1974-11-12 18:00:00 TS 12.1000 122.900 1008 tokyo main 34 34 __O___________ -1 12.1000 122.900 0 19 1006 10 283
1974315N09135 1974 129 WP MM HESTER 1974-11-12 21:00:00 TS 12.2498 122.415 main 49 21 __P___________ -1 12.2498 122.415 0 19 1006 13 281
1974315N09135 1974 129 WP MM HESTER 1974-11-13 00:00:00 TS 12.3500 121.550 1008 tokyo main 21 0 O_O______OOO__ jtwc_wp WP321974 12.3000 121.200 25 -1 12.4000 121.900 0 19 1006 12.3000 121.200 TC 25 12.3000 121.200 1 25 12.3000 121.200 25 1008 120 15 277
1974315N09135 1974 129 WP MM HESTER 1974-11-13 03:00:00 TS 12.4466 120.878 main 10 10 P_P______PPP__ WP321974 12.4002 120.653 25 -1 12.5373 121.338 0 24 1005 12.4002 120.653 TC 25 12.4042 120.635 1 25 12.4002 120.653 25 1008 120 13 278
1974315N09135 1974 129 WP MM HESTER 1974-11-13 06:00:00 TS 12.5262 120.245 1008 tokyo main 68 68 O_O______OPO__ jtwc_wp WP321974 12.5000 120.100 25 -1 12.6000 120.700 1 29 1004 12.5000 120.100 TC 25 12.5063 120.075 1 25 12.5000 120.100 25 1008 120 12 276
1974315N09135 1974 129 WP MM HESTER 1974-11-13 09:00:00 TS 12.5840 119.624 main 117 117 P_P______PPP__ WP321974 12.5999 119.542 25 -1 12.5150 119.965 1 29 1004 12.5999 119.542 TC 25 12.6052 119.528 1 25 12.5999 119.542 25 1008 120 12 276
1974315N09135 1974 129 WP MM HESTER 1974-11-13 12:00:00 TS 12.6400 119.040 1008 tokyo main 155 155 O_O______OOO__ jtwc_wp WP321974 12.7000 119.000 25 -1 12.4000 119.200 1 29 1004 12.7000 119.000 TC 25 12.7000 119.000 1 25 12.7000 119.000 25 1008 120 11 277
1974315N09135 1974 129 WP MM HESTER 1974-11-13 15:00:00 TS 12.7133 118.497 main 190 190 P_P______PPP__ WP321974 12.8073 118.500 25 -1 12.3548 118.492 1 29 1004 12.8073 118.500 TC 25 12.7896 118.492 1 26 12.8073 118.500 25 1007 150 11 278
1974315N09135 1974 129 WP MM HESTER 1974-11-13 18:00:00 TS 12.7943 117.957 1004 tokyo main 234 234 O_O______OPO__ jtwc_wp WP321974 12.9000 118.000 25 -1 12.4000 117.800 1 29 1004 12.9000 118.000 TC 25 12.8714 117.987 1 27 12.9000 118.000 25 1006 180 11 279
1974315N09135 1974 129 WP MM HESTER 1974-11-13 21:00:00 TS 12.8829 117.395 main 289 289 P_P______PPP__ WP321974 12.9648 117.472 27 -1 12.5774 117.093 1 29 1004 12.9648 117.472 TC 27 12.9426 117.464 1 28 12.9648 117.472 27 1005 210 11 280
1974315N09135 1974 129 WP MM HESTER 1974-11-14 00:00:00 TS 13.0000 116.810 1004 tokyo main 347 347 OOO______OOO__ jtwc_wp WP321974 13.0000 116.900 30 -1 13.8000 117.000 2 1004 0 0 0 12.8000 116.400 1 29 1004 13.0000 116.900 TC 30 13.0000 116.900 1 30 13.0000 116.900 30 1004 240 12 279
1974315N09135 1974 129 WP MM HESTER 1974-11-14 03:00:00 TS 13.0655 116.176 main 407 407 PPP______PPP__ WP321974 12.9999 116.272 30 -1 13.7482 116.262 2 1004 0 0 12.9424 115.720 1 29 1003 12.9999 116.272 TC 30 13.0433 116.276 1 30 12.9999 116.272 30 1004 240 12 277
1974315N09135 1974 129 WP MM HESTER 1974-11-14 06:00:00 TS 13.1412 115.539 1004 tokyo main 474 474 OOOO_____OPO__ jtwc_wp WP321974 13.0000 115.600 30 -1 13.7000 115.600 2 1004 0 0 0 13.1000 115.100 1 29 1002 13.6000 116.100 TD 25 1004 13.0000 115.600 TC 30 13.0722 115.610 1 30 13.0000 115.600 30 1004 240 12 278
1974315N09135 1974 129 WP MM HESTER 1974-11-14 09:00:00 TS 13.2398 114.927 main 538 522 PPPP_____PPP__ WP321974 13.0498 114.915 30 -1 13.6568 115.038 2 1004 0 0 13.3871 114.600 1 29 1002 13.5503 115.457 TD 27 1004 13.0498 114.915 TC 30 13.0900 114.914 1 30 13.0498 114.915 30 1004 240 12 277
1974315N09135 1974 129 WP MM HESTER 1974-11-14 12:00:00 TS 13.2926 114.281 1004 tokyo main 522 446 OOOO_____OOO__ jtwc_wp WP321974 13.1000 114.200 30 -1 13.6000 114.400 2 1004 0 0 0 13.6000 114.100 1 29 1002 13.5000 114.800 TD 30 1004 13.1000 114.200 TC 30 13.1000 114.200 1 30 13.1000 114.200 30 1004 240 13 272
1974315N09135 1974 129 WP MM HESTER 1974-11-14 15:00:00 TS 13.2814 113.564 main 446 359 PPPP_____PPP__ WP321974 13.1074 113.450 32 -1 13.5077 113.495 2 1004 0 0 13.5675 113.472 1 33 1001 13.4498 114.115 TD 32 1002 13.1074 113.450 TC 32 13.1225 113.514 1 31 13.1074 113.450 32 1004 210 14 268
1974315N09135 1974 129 WP MM HESTER 1974-11-14 18:00:00 TS 13.2337 112.801 1004 tokyo main 359 283 OOOO_____OPO__ jtwc_wp WP321974 13.1000 112.700 35 0 13.4000 112.500 2 1004 0 0 0 13.4000 112.800 2 38 1000 13.4000 113.400 TS 35 1000 13.1000 112.700 TC 35 13.1361 112.810 1 32 13.1000 112.700 35 1004 180 14 266
1974315N09135 1974 129 WP MM HESTER 1974-11-14 21:00:00 TS 13.1881 112.080 main 283 207 PPPP_____PPP__ WP321974 13.1145 112.023 35 0 13.2851 111.532 2 1004 0 0 13.1996 112.180 2 38 1000 13.3569 112.703 TS 35 1000 13.1145 112.023 TC 35 13.1317 112.077 1 33 13.1145 112.023 35 1004 180 14 266
1974315N09135 1974 129 WP MM HESTER 1974-11-15 00:00:00 TS 13.1333 111.322 1004 tokyo main 196 110 OOOO_____OOO__ jtwc_wp WP321974 13.1000 111.300 35 0 13.2000 110.700 2 1004 0 0 0 13.0000 111.500 2 38 1000 13.3000 111.900 TS 35 1000 13.1000 111.300 TC 35 13.1000 111.300 2 35 13.1000 111.300 35 1004 180 16 266
1974315N09135 1974 129 WP MM HESTER 1974-11-15 03:00:00 TS 13.0706 110.494 main 110 24 PPPP_____PPP__ WP321974 13.0151 110.422 35 0 13.2675 110.187 2 1002 0 0 12.8758 110.690 2 33 1001 13.2229 110.865 TS 35 1000 13.0151 110.422 TC 35 13.0345 110.473 2 31 13.0151 110.422 35 1004 150 17 264
1974315N09135 1974 129 WP MM HESTER 1974-11-15 06:00:00 TS 12.9679 109.606 1000 tokyo main 15 0 OOOO_____OPO__ jtwc_wp WP321974 12.9000 109.500 35 0 13.2000 109.700 9 1000 0 0 0 12.8000 109.800 1 29 1002 13.1000 109.800 TS 35 1000 12.9000 109.500 TC 35 12.9405 109.604 2 27 12.9000 109.500 35 1005 120 17 262
1974315N09135 1974 129 WP MM HESTER 1974-11-15 09:00:00 TS 12.8236 108.726 1004 tokyo main 0 0 PO_P_____PPP__ WP321974 12.7953 108.630 27 -1 12.8000 109.000 2 1004 0 0 0 1 12.9175 108.895 TS 30 1002 12.7953 108.630 TC 27 12.8261 108.708 2 23 12.7953 108.630 27 1005 90 17 261
1974315N09135 1974 129 WP MM HESTER 1974-11-15 12:00:00 TS 12.7000 107.860 main 0 O__O_____OOO__ jtwc_wp WP321974 12.7000 107.800 20 -1 12.7000 108.100 TD 25 1004 12.7000 107.800 TC 20 12.7000 107.800 1 20 12.7000 107.800 20 1006 60 17 262

デジタル台風データ・検索

IBTrACS Databaseについて

本データベースは、米国NOAAが公開する1842年以降の世界の熱帯低気圧のベストトラックデータアーカイブInternational Best Track Archive for Climate Stewardship (IBTrACS)を、ウェブで閲覧しやすい形式に変換したものです。

最終更新日:2021-11-26